sensor_id;sensor_type;location;lat;lon;timestamp;pressure;altitude;pressure_sealevel;temperature;humidity
31761;BME280;18335;51.486;7.562;2024-02-15T00:00:17;100299.16;;;11.96;100.00
31761;BME280;18335;51.486;7.562;2024-02-15T00:02:43;100292.81;;;12.12;100.00
31761;BME280;18335;51.486;7.562;2024-02-15T00:05:10;100297.25;;;12.05;100.00
31761;BME280;18335;51.486;7.562;2024-02-15T00:07:38;100291.78;;;12.05;100.00
31761;BME280;18335;51.486;7.562;2024-02-15T00:10:06;100291.78;;;12.05;100.00
31761;BME280;18335;51.486;7.562;2024-02-15T00:12:34;100299.13;;;12.04;100.00
31761;BME280;18335;51.486;7.562;2024-02-15T00:15:03;100300.53;;;12.00;100.00
31761;BME280;18335;51.486;7.562;2024-02-15T00:17:30;100302.22;;;12.01;100.00
31761;BME280;18335;51.486;7.562;2024-02-15T00:19:57;100303.94;;;12.02;100.00
31761;BME280;18335;51.486;7.562;2024-02-15T00:22:25;100296.41;;;12.04;100.00
31761;BME280;18335;51.486;7.562;2024-02-15T00:24:52;100299.84;;;12.06;100.00
31761;BME280;18335;51.486;7.562;2024-02-15T00:27:19;100296.75;;;12.09;100.00
31761;BME280;18335;51.486;7.562;2024-02-15T00:29:46;100295.53;;;12.04;100.00
31761;BME280;18335;51.486;7.562;2024-02-15T00:32:14;100291.63;;;12.06;100.00
31761;BME280;18335;51.486;7.562;2024-02-15T00:34:41;100291.78;;;12.05;100.00
31761;BME280;18335;51.486;7.562;2024-02-15T00:37:07;100297.25;;;12.05;100.00
31761;BME280;18335;51.486;7.562;2024-02-15T00:39:34;100289.06;;;12.05;100.00
31761;BME280;18335;51.486;7.562;2024-02-15T00:42:01;100295.88;;;12.17;100.00
31761;BME280;18335;51.486;7.562;2024-02-15T00:44:28;100295.91;;;12.56;100.00
31761;BME280;18335;51.486;7.562;2024-02-15T00:46:55;100298.47;;;12.57;100.00
31761;BME280;18335;51.486;7.562;2024-02-15T00:49:23;100288.00;;;12.69;100.00
31761;BME280;18335;51.486;7.562;2024-02-15T00:51:53;100292.28;;;12.63;100.00
31761;BME280;18335;51.486;7.562;2024-02-15T00:54:20;100288.84;;;12.69;100.00
31761;BME280;18335;51.486;7.562;2024-02-15T00:56:48;100295.34;;;12.30;100.00
31761;BME280;18335;51.486;7.562;2024-02-15T00:59:14;100299.91;;;12.37;100.00
31761;BME280;18335;51.486;7.562;2024-02-15T01:01:41;100306.28;;;12.30;100.00
31761;BME280;18335;51.486;7.562;2024-02-15T01:04:08;100297.72;;;12.25;100.00
31761;BME280;18335;51.486;7.562;2024-02-15T01:06:36;100292.44;;;12.23;100.00
31761;BME280;18335;51.486;7.562;2024-02-15T01:09:03;100301.16;;;12.27;100.00
31761;BME280;18335;51.486;7.562;2024-02-15T01:11:29;100305.56;;;12.28;100.00
31761;BME280;18335;51.486;7.562;2024-02-15T01:13:58;100306.78;;;12.33;100.00
31761;BME280;18335;51.486;7.562;2024-02-15T01:16:24;100301.16;;;12.27;100.00
31761;BME280;18335;51.486;7.562;2024-02-15T01:18:51;100309.00;;;12.21;100.00
31761;BME280;18335;51.486;7.562;2024-02-15T01:21:18;100306.97;;;12.24;100.00
31761;BME280;18335;51.486;7.562;2024-02-15T01:23:46;100305.22;;;12.39;100.00
31761;BME280;18335;51.486;7.562;2024-02-15T01:26:12;100305.53;;;12.44;100.00
31761;BME280;18335;51.486;7.562;2024-02-15T01:28:39;100295.25;;;12.46;100.00
31761;BME280;18335;51.486;7.562;2024-02-15T01:31:08;100298.03;;;12.38;100.00
31761;BME280;18335;51.486;7.562;2024-02-15T01:33:36;100305.22;;;12.39;100.00
31761;BME280;18335;51.486;7.562;2024-02-15T01:36:03;100302.69;;;12.29;100.00
31761;BME280;18335;51.486;7.562;2024-02-15T01:38:30;100302.97;;;12.50;100.00
31761;BME280;18335;51.486;7.562;2024-02-15T01:40:59;100300.72;;;12.46;100.00
31761;BME280;18335;51.486;7.562;2024-02-15T01:43:26;100288.25;;;12.51;100.00
31761;BME280;18335;51.486;7.562;2024-02-15T01:45:52;100292.88;;;12.43;100.00
31761;BME280;18335;51.486;7.562;2024-02-15T01:48:20;100300.38;;;12.57;100.00
31761;BME280;18335;51.486;7.562;2024-02-15T01:50:46;100294.41;;;12.53;100.00
31761;BME280;18335;51.486;7.562;2024-02-15T01:53:14;100285.88;;;12.40;100.00
31761;BME280;18335;51.486;7.562;2024-02-15T01:55:41;100290.13;;;12.51;100.00
31761;BME280;18335;51.486;7.562;2024-02-15T01:58:09;100288.72;;;12.63;100.00
31761;BME280;18335;51.486;7.562;2024-02-15T02:00:36;100284.94;;;12.64;100.00
31761;BME280;18335;51.486;7.562;2024-02-15T02:03:05;100291.09;;;12.66;100.00
31761;BME280;18335;51.486;7.562;2024-02-15T02:05:33;100294.91;;;12.57;100.00
31761;BME280;18335;51.486;7.562;2024-02-15T02:07:59;100278.84;;;12.54;100.00
31761;BME280;18335;51.486;7.562;2024-02-15T02:10:29;100283.25;;;12.55;100.00
31761;BME280;18335;51.486;7.562;2024-02-15T02:12:59;100280.50;;;12.63;100.00
31761;BME280;18335;51.486;7.562;2024-02-15T02:15:28;100271.94;;;12.66;100.00
31761;BME280;18335;51.486;7.562;2024-02-15T02:17:56;100269.56;;;12.63;100.00
31761;BME280;18335;51.486;7.562;2024-02-15T02:20:24;100276.09;;;12.46;100.00
31761;BME280;18335;51.486;7.562;2024-02-15T02:22:53;100271.22;;;12.33;100.00
31761;BME280;18335;51.486;7.562;2024-02-15T02:25:23;100269.97;;;12.44;100.00
31761;BME280;18335;51.486;7.562;2024-02-15T02:27:51;100262.38;;;12.62;100.00
31761;BME280;18335;51.486;7.562;2024-02-15T02:30:19;100255.56;;;12.50;100.00
31761;BME280;18335;51.486;7.562;2024-02-15T02:32:48;100253.69;;;12.50;100.00
31761;BME280;18335;51.486;7.562;2024-02-15T02:35:15;100251.97;;;12.49;100.00
31761;BME280;18335;51.486;7.562;2024-02-15T02:37:42;100264.34;;;12.37;100.00
31761;BME280;18335;51.486;7.562;2024-02-15T02:40:09;100254.56;;;12.43;100.00
31761;BME280;18335;51.486;7.562;2024-02-15T02:42:48;100253.03;;;12.40;100.00
31761;BME280;18335;51.486;7.562;2024-02-15T02:45:15;100244.91;;;12.24;100.00
31761;BME280;18335;51.486;7.562;2024-02-15T02:47:42;100246.28;;;12.20;100.00
31761;BME280;18335;51.486;7.562;2024-02-15T02:50:09;100253.25;;;12.31;100.00
31761;BME280;18335;51.486;7.562;2024-02-15T02:52:36;100255.03;;;12.15;100.00
31761;BME280;18335;51.486;7.562;2024-02-15T02:55:04;100247.97;;;12.29;100.00
31761;BME280;18335;51.486;7.562;2024-02-15T02:57:33;100235.06;;;12.46;100.00
31761;BME280;18335;51.486;7.562;2024-02-15T03:00:01;100235.91;;;12.46;100.00
31761;BME280;18335;51.486;7.562;2024-02-15T03:02:30;100240.97;;;12.27;100.00
31761;BME280;18335;51.486;7.562;2024-02-15T03:04:57;100237.88;;;12.30;100.00
31761;BME280;18335;51.486;7.562;2024-02-15T03:07:25;100237.59;;;12.55;100.00
31761;BME280;18335;51.486;7.562;2024-02-15T03:09:52;100236.78;;;12.47;100.00
31761;BME280;18335;51.486;7.562;2024-02-15T03:12:18;100235.97;;;12.38;100.00
31761;BME280;18335;51.486;7.562;2024-02-15T03:14:45;100235.84;;;12.24;100.00
31761;BME280;18335;51.486;7.562;2024-02-15T03:17:13;100233.72;;;12.34;100.00
31761;BME280;18335;51.486;7.562;2024-02-15T03:19:40;100231.69;;;12.28;100.00
31761;BME280;18335;51.486;7.562;2024-02-15T03:22:07;100229.88;;;12.20;100.00
31761;BME280;18335;51.486;7.562;2024-02-15T03:24:33;100223.56;;;12.11;100.00
31761;BME280;18335;51.486;7.562;2024-02-15T03:27:00;100221.34;;;12.15;100.00
31761;BME280;18335;51.486;7.562;2024-02-15T03:29:27;100226.66;;;12.08;100.00
31761;BME280;18335;51.486;7.562;2024-02-15T03:31:54;100225.59;;;12.17;100.00
31761;BME280;18335;51.486;7.562;2024-02-15T03:34:22;100221.47;;;12.21;100.00
31761;BME280;18335;51.486;7.562;2024-02-15T03:36:51;100213.97;;;12.24;100.00
31761;BME280;18335;51.486;7.562;2024-02-15T03:39:19;100214.13;;;12.22;100.00
31761;BME280;18335;51.486;7.562;2024-02-15T03:41:49;100213.81;;;12.17;100.00
31761;BME280;18335;51.486;7.562;2024-02-15T03:44:16;100213.84;;;12.09;100.00
31761;BME280;18335;51.486;7.562;2024-02-15T03:46:43;100213.84;;;12.09;100.00
31761;BME280;18335;51.486;7.562;2024-02-15T03:49:12;100211.28;;;12.07;100.00
31761;BME280;18335;51.486;7.562;2024-02-15T03:51:40;100217.78;;;12.06;100.00
31761;BME280;18335;51.486;7.562;2024-02-15T03:54:08;100212.94;;;12.16;100.00
31761;BME280;18335;51.486;7.562;2024-02-15T03:56:35;100219.09;;;12.18;100.00
31761;BME280;18335;51.486;7.562;2024-02-15T03:59:01;100219.09;;;12.18;100.00
31761;BME280;18335;51.486;7.562;2024-02-15T04:01:30;100220.53;;;11.98;100.00
31761;BME280;18335;51.486;7.562;2024-02-15T04:03:59;100219.66;;;11.98;100.00
31761;BME280;18335;51.486;7.562;2024-02-15T04:06:27;100211.81;;;12.03;100.00
31761;BME280;18335;51.486;7.562;2024-02-15T04:08:57;100224.63;;;12.02;100.00
31761;BME280;18335;51.486;7.562;2024-02-15T04:11:25;100225.97;;;12.14;100.00
31761;BME280;18335;51.486;7.562;2024-02-15T04:13:51;100218.72;;;12.30;100.00
31761;BME280;18335;51.486;7.562;2024-02-15T04:16:18;100207.97;;;12.20;100.00
31761;BME280;18335;51.486;7.562;2024-02-15T04:18:44;100210.75;;;12.51;100.00
31761;BME280;18335;51.486;7.562;2024-02-15T04:21:12;100211.63;;;12.04;100.00
31761;BME280;18335;51.486;7.562;2024-02-15T04:23:38;100214.72;;;12.01;100.00
31761;BME280;18335;51.486;7.562;2024-02-15T04:26:07;100206.03;;;12.37;100.00
31761;BME280;18335;51.486;7.562;2024-02-15T04:28:34;100207.31;;;12.57;100.00
31761;BME280;18335;51.486;7.562;2024-02-15T04:31:01;100199.84;;;12.73;100.00
31761;BME280;18335;51.486;7.562;2024-02-15T04:33:28;100197.34;;;12.64;100.00
31761;BME280;18335;51.486;7.562;2024-02-15T04:35:54;100197.09;;;12.51;100.00
31761;BME280;18335;51.486;7.562;2024-02-15T04:38:21;100188.22;;;12.41;100.00
31761;BME280;18335;51.486;7.562;2024-02-15T04:40:48;100194.56;;;12.41;100.00
31761;BME280;18335;51.486;7.562;2024-02-15T04:43:16;100190.59;;;12.44;100.00
31761;BME280;18335;51.486;7.562;2024-02-15T04:45:43;100186.88;;;12.37;100.00
31761;BME280;18335;51.486;7.562;2024-02-15T04:48:11;100188.94;;;12.35;100.00
31761;BME280;18335;51.486;7.562;2024-02-15T04:50:39;100178.94;;;12.50;100.00
31761;BME280;18335;51.486;7.562;2024-02-15T04:53:08;100180.31;;;12.46;100.00
31761;BME280;18335;51.486;7.562;2024-02-15T04:55:35;100180.38;;;12.38;100.00
31761;BME280;18335;51.486;7.562;2024-02-15T04:58:02;100185.78;;;12.46;100.00
31761;BME280;18335;51.486;7.562;2024-02-15T05:00:31;100178.94;;;12.50;100.00
31761;BME280;18335;51.486;7.562;2024-02-15T05:02:58;100178.81;;;12.43;100.00
31761;BME280;18335;51.486;7.562;2024-02-15T05:05:24;100192.19;;;12.69;100.00
31761;BME280;18335;51.486;7.562;2024-02-15T05:07:52;100178.50;;;12.69;100.00
31761;BME280;18335;51.486;7.562;2024-02-15T05:10:18;100172.66;;;12.72;100.00
31761;BME280;18335;51.486;7.562;2024-02-15T05:12:45;100174.31;;;12.81;100.00
31761;BME280;18335;51.486;7.562;2024-02-15T05:15:14;100173.81;;;12.77;100.00
31761;BME280;18335;51.486;7.562;2024-02-15T05:17:44;100167.94;;;12.58;100.00
31761;BME280;18335;51.486;7.562;2024-02-15T05:20:11;100176.78;;;12.68;100.00
31761;BME280;18335;51.486;7.562;2024-02-15T05:22:39;100178.75;;;12.20;100.00
31761;BME280;18335;51.486;7.562;2024-02-15T05:25:09;100178.06;;;12.18;100.00
31761;BME280;18335;51.486;7.562;2024-02-15T05:27:37;100170.91;;;12.17;100.00
31761;BME280;18335;51.486;7.562;2024-02-15T05:30:05;100178.59;;;12.14;100.00
31761;BME280;18335;51.486;7.562;2024-02-15T05:32:33;100170.94;;;12.09;100.00
31761;BME280;18335;51.486;7.562;2024-02-15T05:35:09;100178.78;;;12.12;100.00
31761;BME280;18335;51.486;7.562;2024-02-15T05:37:36;100182.16;;;12.23;100.00
31761;BME280;18335;51.486;7.562;2024-02-15T05:40:03;100186.31;;;12.10;100.00
31761;BME280;18335;51.486;7.562;2024-02-15T05:42:30;100175.38;;;12.10;100.00
31761;BME280;18335;51.486;7.562;2024-02-15T05:45:26;100180.53;;;12.05;100.00
31761;BME280;18335;51.486;7.562;2024-02-15T05:47:55;100186.31;;;12.10;100.00
31761;BME280;18335;51.486;7.562;2024-02-15T05:50:23;100182.53;;;12.11;100.00
31761;BME280;18335;51.486;7.562;2024-02-15T05:52:49;100182.41;;;12.05;100.00
31761;BME280;18335;51.486;7.562;2024-02-15T05:55:18;100171.81;;;12.02;100.00
31761;BME280;18335;51.486;7.562;2024-02-15T05:57:45;100170.94;;;12.01;100.00
31761;BME280;18335;51.486;7.562;2024-02-15T06:00:13;100166.34;;;12.02;100.00
31761;BME280;18335;51.486;7.562;2024-02-15T06:02:40;100169.38;;;12.07;100.00
31761;BME280;18335;51.486;7.562;2024-02-15T06:05:07;100164.78;;;12.07;100.00
31761;BME280;18335;51.486;7.562;2024-02-15T06:07:36;100165.94;;;12.13;100.00
31761;BME280;18335;51.486;7.562;2024-02-15T06:10:04;100160.34;;;12.06;100.00
31761;BME280;18335;51.486;7.562;2024-02-15T06:12:33;100157.97;;;12.03;100.00
31761;BME280;18335;51.486;7.562;2024-02-15T06:14:59;100163.59;;;12.02;100.00
31761;BME280;18335;51.486;7.562;2024-02-15T06:17:26;100161.72;;;12.02;100.00
31761;BME280;18335;51.486;7.562;2024-02-15T06:19:53;100164.28;;;12.04;100.00
31761;BME280;18335;51.486;7.562;2024-02-15T06:22:19;100172.81;;;12.01;100.00
31761;BME280;18335;51.486;7.562;2024-02-15T06:24:47;100171.47;;;12.05;100.00
31761;BME280;18335;51.486;7.562;2024-02-15T06:27:14;100163.91;;;12.07;100.00
31761;BME280;18335;51.486;7.562;2024-02-15T06:29:41;100164.78;;;12.07;100.00
31761;BME280;18335;51.486;7.562;2024-02-15T06:32:25;100166.66;;;12.07;100.00
31761;BME280;18335;51.486;7.562;2024-02-15T06:35:10;100170.44;;;12.06;100.00
31761;BME280;18335;51.486;7.562;2024-02-15T06:37:54;100179.50;;;12.06;100.00
31761;BME280;18335;51.486;7.562;2024-02-15T06:40:54;100179.00;;;12.03;100.00
31761;BME280;18335;51.486;7.562;2024-02-15T06:43:21;100179.81;;;12.11;100.00
31761;BME280;18335;51.486;7.562;2024-02-15T06:45:48;100179.63;;;12.13;100.00
31761;BME280;18335;51.486;7.562;2024-02-15T06:48:16;100182.00;;;12.16;100.00
31761;BME280;18335;51.486;7.562;2024-02-15T06:50:43;100183.91;;;12.15;100.00
31761;BME280;18335;51.486;7.562;2024-02-15T06:53:09;100193.50;;;12.11;100.00
31761;BME280;18335;51.486;7.562;2024-02-15T06:55:37;100193.34;;;12.05;100.00
31761;BME280;18335;51.486;7.562;2024-02-15T06:58:06;100195.22;;;12.12;100.00
31761;BME280;18335;51.486;7.562;2024-02-15T07:00:32;100189.22;;;12.09;100.00
31761;BME280;18335;51.486;7.562;2024-02-15T07:02:59;100198.66;;;12.06;100.00
31761;BME280;18335;51.486;7.562;2024-02-15T07:05:26;100197.78;;;12.06;100.00
31761;BME280;18335;51.486;7.562;2024-02-15T07:07:53;100200.00;;;12.02;100.00
31761;BME280;18335;51.486;7.562;2024-02-15T07:10:20;100203.75;;;12.09;100.00
31761;BME280;18335;51.486;7.562;2024-02-15T07:12:47;100197.59;;;12.07;100.00
31761;BME280;18335;51.486;7.562;2024-02-15T07:15:16;100201.03;;;12.09;100.00
31761;BME280;18335;51.486;7.562;2024-02-15T07:17:43;100209.28;;;11.93;100.00
31761;BME280;18335;51.486;7.562;2024-02-15T07:20:11;100195.91;;;12.06;100.00
31761;BME280;18335;51.486;7.562;2024-02-15T07:22:42;100205.16;;;11.97;100.00
31761;BME280;18335;51.486;7.562;2024-02-15T07:25:10;100206.53;;;11.93;100.00
31761;BME280;18335;51.486;7.562;2024-02-15T07:27:37;100207.56;;;12.00;100.00
31761;BME280;18335;51.486;7.562;2024-02-15T07:30:05;100206.50;;;12.09;100.00
31761;BME280;18335;51.486;7.562;2024-02-15T07:32:35;100202.72;;;12.10;100.00
31761;BME280;18335;51.486;7.562;2024-02-15T07:35:02;100202.03;;;12.08;100.00
31761;BME280;18335;51.486;7.562;2024-02-15T07:37:33;100200.53;;;12.06;100.00
31761;BME280;18335;51.486;7.562;2024-02-15T07:40:00;100199.81;;;12.12;100.00
31761;BME280;18335;51.486;7.562;2024-02-15T07:42:29;100198.56;;;12.23;100.00
31761;BME280;18335;51.486;7.562;2024-02-15T07:44:55;100195.47;;;12.26;100.00
31761;BME280;18335;51.486;7.562;2024-02-15T07:47:22;100197.38;;;12.56;100.00
31761;BME280;18335;51.486;7.562;2024-02-15T07:49:51;100192.31;;;12.45;100.00
31761;BME280;18335;51.486;7.562;2024-02-15T07:52:17;100191.56;;;12.59;100.00
31761;BME280;18335;51.486;7.562;2024-02-15T07:54:44;100190.88;;;12.57;100.00
31761;BME280;18335;51.486;7.562;2024-02-15T07:57:11;100186.00;;;12.75;100.00
31761;BME280;18335;51.486;7.562;2024-02-15T07:59:39;100177.78;;;12.75;100.00
31761;BME280;18335;51.486;7.562;2024-02-15T08:02:07;100168.84;;;12.81;100.00
31761;BME280;18335;51.486;7.562;2024-02-15T08:04:34;100171.09;;;12.77;100.00
31761;BME280;18335;51.486;7.562;2024-02-15T08:07:07;100158.97;;;12.72;100.00
31761;BME280;18335;51.486;7.562;2024-02-15T08:09:36;100157.53;;;12.84;100.00
31761;BME280;18335;51.486;7.562;2024-02-15T08:12:03;100153.59;;;12.78;100.00
31761;BME280;18335;51.486;7.562;2024-02-15T08:14:30;100153.38;;;12.88;100.00
31761;BME280;18335;51.486;7.562;2024-02-15T08:16:57;100135.16;;;12.72;100.00
31761;BME280;18335;51.486;7.562;2024-02-15T08:19:24;100130.97;;;12.62;100.00
31761;BME280;18335;51.486;7.562;2024-02-15T08:21:54;100129.78;;;12.87;100.00
31761;BME280;18335;51.486;7.562;2024-02-15T08:24:23;100121.09;;;12.75;100.00
31761;BME280;18335;51.486;7.562;2024-02-15T08:26:49;100117.84;;;12.80;100.00
31761;BME280;18335;51.486;7.562;2024-02-15T08:29:18;100120.56;;;12.80;100.00
31761;BME280;18335;51.486;7.562;2024-02-15T08:31:45;100128.22;;;12.85;100.00
31761;BME280;18335;51.486;7.562;2024-02-15T08:34:12;100126.59;;;12.98;100.00
31761;BME280;18335;51.486;7.562;2024-02-15T08:36:40;100132.38;;;13.03;100.00
31761;BME280;18335;51.486;7.562;2024-02-15T08:39:07;100138.50;;;13.05;100.00
31761;BME280;18335;51.486;7.562;2024-02-15T08:41:38;100128.41;;;13.28;100.00
31761;BME280;18335;51.486;7.562;2024-02-15T08:44:05;100140.78;;;13.24;100.00
31761;BME280;18335;51.486;7.562;2024-02-15T08:46:37;100131.16;;;13.28;100.00
31761;BME280;18335;51.486;7.562;2024-02-15T08:49:03;100128.97;;;13.24;100.00
31761;BME280;18335;51.486;7.562;2024-02-15T08:51:30;100122.66;;;13.38;100.00
31761;BME280;18335;51.486;7.562;2024-02-15T08:53:58;100125.50;;;13.45;100.00
31761;BME280;18335;51.486;7.562;2024-02-15T08:56:25;100129.31;;;13.44;100.00
31761;BME280;18335;51.486;7.562;2024-02-15T08:58:53;100131.19;;;13.43;100.00
31761;BME280;18335;51.486;7.562;2024-02-15T09:01:20;100130.69;;;13.40;100.00
31761;BME280;18335;51.486;7.562;2024-02-15T09:03:47;100131.56;;;13.55;100.00
31761;BME280;18335;51.486;7.562;2024-02-15T09:06:14;100131.44;;;13.34;100.00
31761;BME280;18335;51.486;7.562;2024-02-15T09:08:41;100135.72;;;13.51;100.00
31761;BME280;18335;51.486;7.562;2024-02-15T09:11:07;100138.66;;;13.49;100.00
31761;BME280;18335;51.486;7.562;2024-02-15T09:13:37;100132.19;;;13.27;100.00
31761;BME280;18335;51.486;7.562;2024-02-15T09:16:06;100130.22;;;13.36;100.00
31761;BME280;18335;51.486;7.562;2024-02-15T09:18:32;100141.28;;;13.43;100.00
31761;BME280;18335;51.486;7.562;2024-02-15T09:20:59;100137.00;;;13.25;100.00
31761;BME280;18335;51.486;7.562;2024-02-15T09:23:26;100148.63;;;13.27;100.00
31761;BME280;18335;51.486;7.562;2024-02-15T09:25:53;100144.53;;;13.23;100.00
31761;BME280;18335;51.486;7.562;2024-02-15T09:28:19;100132.41;;;13.41;100.00
31761;BME280;18335;51.486;7.562;2024-02-15T09:30:48;100139.00;;;13.32;100.00
31761;BME280;18335;51.486;7.562;2024-02-15T09:33:19;100133.81;;;13.37;100.00
31761;BME280;18335;51.486;7.562;2024-02-15T09:35:46;100138.84;;;13.48;100.00
31761;BME280;18335;51.486;7.562;2024-02-15T09:38:13;100132.03;;;13.44;100.00
31761;BME280;18335;51.486;7.562;2024-02-15T09:40:42;100131.66;;;13.47;100.00
31761;BME280;18335;51.486;7.562;2024-02-15T09:43:09;100128.97;;;13.39;100.00
31761;BME280;18335;51.486;7.562;2024-02-15T09:45:38;100125.88;;;13.42;100.00
31761;BME280;18335;51.486;7.562;2024-02-15T09:48:06;100124.22;;;13.70;100.00
31761;BME280;18335;51.486;7.562;2024-02-15T09:50:39;100123.44;;;13.47;100.00
31761;BME280;18335;51.486;7.562;2024-02-15T09:53:08;100118.78;;;13.47;100.00
31761;BME280;18335;51.486;7.562;2024-02-15T09:55:35;100114.09;;;13.56;100.00
31761;BME280;18335;51.486;7.562;2024-02-15T09:58:03;100119.59;;;13.56;100.00
31761;BME280;18335;51.486;7.562;2024-02-15T10:00:31;100117.88;;;13.55;100.00
31761;BME280;18335;51.486;7.562;2024-02-15T10:03:00;100119.22;;;13.59;100.00
31761;BME280;18335;51.486;7.562;2024-02-15T10:05:28;100107.19;;;13.60;100.00
31761;BME280;18335;51.486;7.562;2024-02-15T10:07:57;100108.03;;;13.75;100.00
31761;BME280;18335;51.486;7.562;2024-02-15T10:10:27;100115.22;;;13.76;100.00
31761;BME280;18335;51.486;7.562;2024-02-15T10:12:54;100099.53;;;13.70;100.00
31761;BME280;18335;51.486;7.562;2024-02-15T10:15:30;100109.53;;;13.92;100.00
31761;BME280;18335;51.486;7.562;2024-02-15T10:17:58;100101.91;;;13.88;100.00
31761;BME280;18335;51.486;7.562;2024-02-15T10:20:25;100103.28;;;13.98;100.00
31761;BME280;18335;51.486;7.562;2024-02-15T10:22:53;100096.13;;;13.97;100.00
31761;BME280;18335;51.486;7.562;2024-02-15T10:25:22;100100.09;;;14.09;100.00
31761;BME280;18335;51.486;7.562;2024-02-15T10:27:49;100105.28;;;14.04;100.00
31761;BME280;18335;51.486;7.562;2024-02-15T10:30:17;100092.97;;;14.15;100.00
31761;BME280;18335;51.486;7.562;2024-02-15T10:32:44;100094.81;;;14.29;100.00
31761;BME280;18335;51.486;7.562;2024-02-15T10:35:19;100082.81;;;14.45;100.00
31761;BME280;18335;51.486;7.562;2024-02-15T10:37:48;100085.69;;;14.36;100.00
31761;BME280;18335;51.486;7.562;2024-02-15T10:40:17;100075.81;;;14.27;100.00
31761;BME280;18335;51.486;7.562;2024-02-15T10:42:47;100089.47;;;14.21;100.00
31761;BME280;18335;51.486;7.562;2024-02-15T10:45:14;100087.56;;;14.21;100.00
31761;BME280;18335;51.486;7.562;2024-02-15T10:47:44;100085.84;;;14.20;100.00
31761;BME280;18335;51.486;7.562;2024-02-15T10:50:12;100088.25;;;14.09;100.00
31761;BME280;18335;51.486;7.562;2024-02-15T10:52:44;100080.84;;;14.24;100.00
31761;BME280;18335;51.486;7.562;2024-02-15T10:55:24;100085.81;;;14.50;100.00
31761;BME280;18335;51.486;7.562;2024-02-15T10:57:56;100085.16;;;14.48;100.00
31761;BME280;18335;51.486;7.562;2024-02-15T11:00:28;100077.38;;;14.51;100.00
31761;BME280;18335;51.486;7.562;2024-02-15T11:03:00;100082.41;;;14.48;100.00
31761;BME280;18335;51.486;7.562;2024-02-15T11:05:32;100077.81;;;14.55;100.00
31761;BME280;18335;51.486;7.562;2024-02-15T11:08:02;100075.28;;;14.53;100.00
31761;BME280;18335;51.486;7.562;2024-02-15T11:10:30;100069.97;;;14.52;100.00
31761;BME280;18335;51.486;7.562;2024-02-15T11:12:58;100073.72;;;14.65;100.00
31761;BME280;18335;51.486;7.562;2024-02-15T11:15:43;100076.22;;;14.60;100.00
31761;BME280;18335;51.486;7.562;2024-02-15T11:18:41;100063.69;;;14.79;100.00
31761;BME280;18335;51.486;7.562;2024-02-15T11:21:09;100072.09;;;14.71;100.00
31761;BME280;18335;51.486;7.562;2024-02-15T11:23:36;100063.59;;;14.66;100.00
31761;BME280;18335;51.486;7.562;2024-02-15T11:26:08;100054.34;;;14.73;100.00
31761;BME280;18335;51.486;7.562;2024-02-15T11:28:40;100059.13;;;14.65;100.00
31761;BME280;18335;51.486;7.562;2024-02-15T11:31:10;100058.09;;;14.66;100.00
31761;BME280;18335;51.486;7.562;2024-02-15T11:33:38;100064.56;;;14.58;100.00
31761;BME280;18335;51.486;7.562;2024-02-15T11:36:06;100051.16;;;14.49;100.00
31761;BME280;18335;51.486;7.562;2024-02-15T11:38:33;100053.00;;;14.63;100.00
31761;BME280;18335;51.486;7.562;2024-02-15T11:41:04;100040.84;;;14.72;100.00
31761;BME280;18335;51.486;7.562;2024-02-15T11:43:50;100042.81;;;14.57;100.00
31761;BME280;18335;51.486;7.562;2024-02-15T11:46:22;100041.41;;;14.67;100.00
31761;BME280;18335;51.486;7.562;2024-02-15T11:48:51;100041.72;;;14.79;100.00
31761;BME280;18335;51.486;7.562;2024-02-15T11:51:25;100042.72;;;14.92;100.00
31761;BME280;18335;51.486;7.562;2024-02-15T11:54:02;100031.84;;;14.84;100.00
31761;BME280;18335;51.486;7.562;2024-02-15T11:56:31;100031.91;;;14.91;100.00
31761;BME280;18335;51.486;7.562;2024-02-15T11:59:04;100039.75;;;14.94;100.00
31761;BME280;18335;51.486;7.562;2024-02-15T12:01:32;100044.56;;;15.13;100.00
31761;BME280;18335;51.486;7.562;2024-02-15T12:04:16;100044.56;;;15.13;100.00
31761;BME280;18335;51.486;7.562;2024-02-15T12:07:02;100044.78;;;14.90;100.00
31761;BME280;18335;51.486;7.562;2024-02-15T12:09:46;100052.75;;;15.07;100.00
31761;BME280;18335;51.486;7.562;2024-02-15T12:12:30;100041.06;;;14.98;100.00
31761;BME280;18335;51.486;7.562;2024-02-15T12:15:16;100039.47;;;15.10;100.00
31761;BME280;18335;51.486;7.562;2024-02-15T12:18:13;100039.34;;;14.97;100.00
31761;BME280;18335;51.486;7.562;2024-02-15T12:20:58;100030.28;;;15.24;100.00
31761;BME280;18335;51.486;7.562;2024-02-15T12:23:25;100023.16;;;15.36;100.00
31761;BME280;18335;51.486;7.562;2024-02-15T12:25:52;100017.66;;;15.36;100.00
31761;BME280;18335;51.486;7.562;2024-02-15T12:28:18;100025.31;;;15.41;100.00
31761;BME280;18335;51.486;7.562;2024-02-15T12:30:55;100021.63;;;15.27;100.00
31761;BME280;18335;51.486;7.562;2024-02-15T12:33:22;100018.06;;;15.33;100.00
31761;BME280;18335;51.486;7.562;2024-02-15T12:35:49;100013.03;;;15.37;100.00
31761;BME280;18335;51.486;7.562;2024-02-15T12:38:16;100010.09;;;15.45;100.00
31761;BME280;18335;51.486;7.562;2024-02-15T12:40:44;100009.38;;;15.58;100.00
31761;BME280;18335;51.486;7.562;2024-02-15T12:43:11;99999.25;;;15.65;100.00
31761;BME280;18335;51.486;7.562;2024-02-15T12:45:39;99999.66;;;15.68;100.00
31761;BME280;18335;51.486;7.562;2024-02-15T12:48:09;99994.44;;;15.73;100.00